sensor_id;sensor_type;location;lat;lon;timestamp;pressure;altitude;pressure_sealevel;temperature;humidity
41886;BME280;27567;43.084;25.616;2023-05-25T00:02:24;98088.75;;;13.05;100.00
41886;BME280;27567;43.084;25.616;2023-05-25T00:05:09;98088.75;;;13.05;100.00
41886;BME280;27567;43.084;25.616;2023-05-25T00:07:54;98096.75;;;13.12;100.00
41886;BME280;27567;43.084;25.616;2023-05-25T00:10:38;98087.25;;;13.09;100.00
41886;BME280;27567;43.084;25.616;2023-05-25T00:13:22;98091.66;;;13.03;100.00
41886;BME280;27567;43.084;25.616;2023-05-25T00:16:06;98094.22;;;12.98;100.00
41886;BME280;27567;43.084;25.616;2023-05-25T00:18:52;98092.16;;;12.93;100.00
41886;BME280;27567;43.084;25.616;2023-05-25T00:21:40;98094.56;;;12.83;100.00
41886;BME280;27567;43.084;25.616;2023-05-25T00:24:24;98098.56;;;12.74;100.00
41886;BME280;27567;43.084;25.616;2023-05-25T00:27:08;98091.47;;;12.80;100.00
41886;BME280;27567;43.084;25.616;2023-05-25T00:29:52;98082.31;;;12.87;100.00
41886;BME280;27567;43.084;25.616;2023-05-25T00:32:36;98091.56;;;12.91;100.00
41886;BME280;27567;43.084;25.616;2023-05-25T00:35:20;98092.94;;;13.01;100.00
41886;BME280;27567;43.084;25.616;2023-05-25T00:38:04;98093.53;;;13.03;100.00
41886;BME280;27567;43.084;25.616;2023-05-25T00:40:48;98092.56;;;12.97;100.00
41886;BME280;27567;43.084;25.616;2023-05-25T00:43:37;98090.16;;;13.07;100.00
41886;BME280;27567;43.084;25.616;2023-05-25T00:46:21;98095.78;;;13.06;100.00
41886;BME280;27567;43.084;25.616;2023-05-25T00:49:06;98099.28;;;12.88;100.00
41886;BME280;27567;43.084;25.616;2023-05-25T00:51:51;98097.38;;;12.88;100.00
41886;BME280;27567;43.084;25.616;2023-05-25T00:54:35;98100.75;;;12.84;100.00
41886;BME280;27567;43.084;25.616;2023-05-25T00:57:21;98104.22;;;12.91;100.00
41886;BME280;27567;43.084;25.616;2023-05-25T01:00:08;98106.97;;;12.84;100.00
41886;BME280;27567;43.084;25.616;2023-05-25T01:02:55;98102.47;;;12.78;100.00
41886;BME280;27567;43.084;25.616;2023-05-25T01:05:44;98099.53;;;12.61;100.00
41886;BME280;27567;43.084;25.616;2023-05-25T01:08:33;98100.25;;;12.50;100.00
41886;BME280;27567;43.084;25.616;2023-05-25T01:11:20;98096.28;;;12.52;100.00
41886;BME280;27567;43.084;25.616;2023-05-25T01:14:07;98103.03;;;12.61;100.00
41886;BME280;27567;43.084;25.616;2023-05-25T01:16:52;98097.19;;;12.65;100.00
41886;BME280;27567;43.084;25.616;2023-05-25T01:19:39;98095.34;;;12.65;100.00
41886;BME280;27567;43.084;25.616;2023-05-25T01:22:31;98093.63;;;12.71;100.00
41886;BME280;27567;43.084;25.616;2023-05-25T01:25:45;98086.69;;;12.63;100.00
41886;BME280;27567;43.084;25.616;2023-05-25T01:28:35;98098.09;;;12.58;100.00
41886;BME280;27567;43.084;25.616;2023-05-25T01:31:23;98094.72;;;12.44;100.00
41886;BME280;27567;43.084;25.616;2023-05-25T01:34:08;98092.09;;;12.38;100.00
41886;BME280;27567;43.084;25.616;2023-05-25T01:36:53;98086.59;;;12.26;100.00
41886;BME280;27567;43.084;25.616;2023-05-25T01:39:39;98082.25;;;12.25;100.00
41886;BME280;27567;43.084;25.616;2023-05-25T01:42:23;98086.41;;;12.21;100.00
41886;BME280;27567;43.084;25.616;2023-05-25T01:45:09;98086.41;;;12.21;100.00
41886;BME280;27567;43.084;25.616;2023-05-25T01:48:01;98091.00;;;12.13;100.00
41886;BME280;27567;43.084;25.616;2023-05-25T01:50:57;98092.16;;;12.24;100.00
41886;BME280;27567;43.084;25.616;2023-05-25T01:53:46;98087.28;;;12.14;100.00
41886;BME280;27567;43.084;25.616;2023-05-25T01:56:33;98094.69;;;12.19;100.00
41886;BME280;27567;43.084;25.616;2023-05-25T01:59:20;98088.56;;;12.12;100.00
41886;BME280;27567;43.084;25.616;2023-05-25T02:02:05;98087.19;;;11.96;100.00
41886;BME280;27567;43.084;25.616;2023-05-25T02:04:52;98088.38;;;12.07;100.00
41886;BME280;27567;43.084;25.616;2023-05-25T02:07:37;98086.56;;;11.94;100.00
41886;BME280;27567;43.084;25.616;2023-05-25T02:10:21;98090.53;;;11.84;100.00
41886;BME280;27567;43.084;25.616;2023-05-25T02:13:06;98102.47;;;12.02;100.00
41886;BME280;27567;43.084;25.616;2023-05-25T02:15:50;98098.94;;;12.01;100.00
41886;BME280;27567;43.084;25.616;2023-05-25T02:18:34;98096.53;;;11.86;100.00
41886;BME280;27567;43.084;25.616;2023-05-25T02:21:18;98100.66;;;11.82;100.00
41886;BME280;27567;43.084;25.616;2023-05-25T02:24:02;98101.31;;;11.78;100.00
41886;BME280;27567;43.084;25.616;2023-05-25T02:26:46;98099.06;;;11.75;100.00
41886;BME280;27567;43.084;25.616;2023-05-25T02:29:30;98110.66;;;11.75;100.00
41886;BME280;27567;43.084;25.616;2023-05-25T02:32:14;98111.28;;;11.70;100.00
41886;BME280;27567;43.084;25.616;2023-05-25T02:34:58;98117.34;;;11.59;100.00
41886;BME280;27567;43.084;25.616;2023-05-25T02:37:43;98117.56;;;11.51;100.00
41886;BME280;27567;43.084;25.616;2023-05-25T02:40:27;98118.56;;;11.63;100.00
41886;BME280;27567;43.084;25.616;2023-05-25T02:43:11;98122.47;;;11.67;100.00
41886;BME280;27567;43.084;25.616;2023-05-25T02:45:55;98130.72;;;11.66;100.00
41886;BME280;27567;43.084;25.616;2023-05-25T02:48:40;98135.06;;;11.67;100.00
41886;BME280;27567;43.084;25.616;2023-05-25T02:51:25;98134.84;;;11.62;100.00
41886;BME280;27567;43.084;25.616;2023-05-25T02:54:09;98136.97;;;11.53;100.00
41886;BME280;27567;43.084;25.616;2023-05-25T02:56:53;98131.38;;;11.61;100.00
41886;BME280;27567;43.084;25.616;2023-05-25T02:59:38;98128.03;;;11.66;100.00
41886;BME280;27567;43.084;25.616;2023-05-25T03:02:21;98126.34;;;11.71;100.00
41886;BME280;27567;43.084;25.616;2023-05-25T03:05:08;98137.28;;;11.77;100.00
41886;BME280;27567;43.084;25.616;2023-05-25T03:07:52;98143.06;;;11.73;100.00
41886;BME280;27567;43.084;25.616;2023-05-25T03:10:36;98138.28;;;11.82;100.00
41886;BME280;27567;43.084;25.616;2023-05-25T03:13:20;98143.22;;;11.85;100.00
41886;BME280;27567;43.084;25.616;2023-05-25T03:16:05;98132.91;;;11.82;100.00
41886;BME280;27567;43.084;25.616;2023-05-25T03:18:49;98135.19;;;11.79;100.00
41886;BME280;27567;43.084;25.616;2023-05-25T03:21:33;98137.22;;;11.90;100.00
41886;BME280;27567;43.084;25.616;2023-05-25T03:24:17;98135.50;;;12.02;100.00
41886;BME280;27567;43.084;25.616;2023-05-25T03:27:01;98139.19;;;12.08;100.00
41886;BME280;27567;43.084;25.616;2023-05-25T03:29:47;98150.69;;;12.22;100.00
41886;BME280;27567;43.084;25.616;2023-05-25T03:32:33;98147.78;;;12.24;100.00
41886;BME280;27567;43.084;25.616;2023-05-25T03:35:17;98147.94;;;12.29;100.00
41886;BME280;27567;43.084;25.616;2023-05-25T03:38:01;98136.00;;;12.25;100.00
41886;BME280;27567;43.084;25.616;2023-05-25T03:40:45;98141.28;;;12.38;100.00
41886;BME280;27567;43.084;25.616;2023-05-25T03:43:29;98141.03;;;12.46;100.00
41886;BME280;27567;43.084;25.616;2023-05-25T03:46:14;98145.66;;;12.58;100.00
41886;BME280;27567;43.084;25.616;2023-05-25T03:48:58;98151.47;;;12.55;100.00
41886;BME280;27567;43.084;25.616;2023-05-25T03:51:43;98149.75;;;12.67;100.00
41886;BME280;27567;43.084;25.616;2023-05-25T03:54:27;98154.34;;;12.85;100.00
41886;BME280;27567;43.084;25.616;2023-05-25T03:57:11;98147.47;;;12.89;100.00
41886;BME280;27567;43.084;25.616;2023-05-25T03:59:55;98143.47;;;12.99;100.00
41886;BME280;27567;43.084;25.616;2023-05-25T04:02:39;98145.97;;;12.93;100.00
41886;BME280;27567;43.084;25.616;2023-05-25T04:05:23;98138.94;;;13.18;100.00
41886;BME280;27567;43.084;25.616;2023-05-25T04:08:07;98144.50;;;13.16;100.00
41886;BME280;27567;43.084;25.616;2023-05-25T04:10:52;98154.09;;;13.31;100.00
41886;BME280;27567;43.084;25.616;2023-05-25T04:13:36;98146.63;;;13.33;100.00
41886;BME280;27567;43.084;25.616;2023-05-25T04:16:23;98150.84;;;13.47;100.00
41886;BME280;27567;43.084;25.616;2023-05-25T04:19:08;98147.91;;;13.49;100.00
41886;BME280;27567;43.084;25.616;2023-05-25T04:21:52;98152.31;;;13.62;100.00
41886;BME280;27567;43.084;25.616;2023-05-25T04:24:36;98150.97;;;13.71;100.00
41886;BME280;27567;43.084;25.616;2023-05-25T04:27:21;98160.41;;;13.80;100.00
41886;BME280;27567;43.084;25.616;2023-05-25T04:30:05;98162.31;;;13.92;100.00
41886;BME280;27567;43.084;25.616;2023-05-25T04:32:49;98163.22;;;13.86;100.00
41886;BME280;27567;43.084;25.616;2023-05-25T04:35:33;98164.69;;;14.00;100.00
41886;BME280;27567;43.084;25.616;2023-05-25T04:38:19;98175.84;;;14.04;100.00
41886;BME280;27567;43.084;25.616;2023-05-25T04:41:03;98177.78;;;14.15;100.00
41886;BME280;27567;43.084;25.616;2023-05-25T04:43:49;98184.59;;;14.30;100.00
41886;BME280;27567;43.084;25.616;2023-05-25T04:46:33;98166.94;;;14.46;100.00
41886;BME280;27567;43.084;25.616;2023-05-25T04:49:21;98169.09;;;14.55;100.00
41886;BME280;27567;43.084;25.616;2023-05-25T04:52:05;98165.81;;;14.65;100.00
41886;BME280;27567;43.084;25.616;2023-05-25T04:54:49;98175.41;;;14.92;100.00
41886;BME280;27567;43.084;25.616;2023-05-25T04:57:34;98168.09;;;15.04;100.00
41886;BME280;27567;43.084;25.616;2023-05-25T05:00:18;98174.09;;;15.06;100.00
41886;BME280;27567;43.084;25.616;2023-05-25T05:03:03;98176.31;;;15.33;100.00
41886;BME280;27567;43.084;25.616;2023-05-25T05:05:48;98172.53;;;15.58;100.00
41886;BME280;27567;43.084;25.616;2023-05-25T05:08:31;98175.38;;;15.80;100.00
41886;BME280;27567;43.084;25.616;2023-05-25T05:11:15;98174.56;;;15.91;100.00
41886;BME280;27567;43.084;25.616;2023-05-25T05:13:59;98177.28;;;16.37;100.00
41886;BME280;27567;43.084;25.616;2023-05-25T05:16:43;98190.38;;;16.58;100.00
41886;BME280;27567;43.084;25.616;2023-05-25T05:19:27;98189.06;;;16.77;100.00
41886;BME280;27567;43.084;25.616;2023-05-25T05:22:12;98192.28;;;16.57;100.00
41886;BME280;27567;43.084;25.616;2023-05-25T05:24:58;98188.34;;;16.82;100.00
41886;BME280;27567;43.084;25.616;2023-05-25T05:27:43;98193.25;;;17.19;100.00
41886;BME280;27567;43.084;25.616;2023-05-25T05:30:27;98191.34;;;17.37;100.00
41886;BME280;27567;43.084;25.616;2023-05-25T05:33:11;98196.22;;;17.57;100.00
41886;BME280;27567;43.084;25.616;2023-05-25T05:35:55;98209.69;;;17.91;100.00
41886;BME280;27567;43.084;25.616;2023-05-25T05:38:39;98207.09;;;18.24;100.00
41886;BME280;27567;43.084;25.616;2023-05-25T05:41:24;98206.94;;;18.36;100.00
41886;BME280;27567;43.084;25.616;2023-05-25T05:44:08;98214.44;;;18.56;100.00
41886;BME280;27567;43.084;25.616;2023-05-25T05:46:52;98223.22;;;18.63;100.00
41886;BME280;27567;43.084;25.616;2023-05-25T05:49:42;98220.34;;;18.75;100.00
41886;BME280;27567;43.084;25.616;2023-05-25T05:52:26;98222.09;;;18.59;100.00
41886;BME280;27567;43.084;25.616;2023-05-25T05:55:10;98228.66;;;18.36;100.00
41886;BME280;27567;43.084;25.616;2023-05-25T05:57:54;98225.16;;;18.68;100.00
41886;BME280;27567;43.084;25.616;2023-05-25T06:00:38;98224.63;;;18.66;100.00
41886;BME280;27567;43.084;25.616;2023-05-25T06:03:22;98243.09;;;18.96;100.00
41886;BME280;27567;43.084;25.616;2023-05-25T06:06:07;98238.09;;;19.20;100.00
41886;BME280;27567;43.084;25.616;2023-05-25T06:08:52;98246.56;;;19.67;100.00
41886;BME280;27567;43.084;25.616;2023-05-25T06:11:36;98247.59;;;19.56;100.00
41886;BME280;27567;43.084;25.616;2023-05-25T06:14:22;98243.75;;;19.51;100.00
41886;BME280;27567;43.084;25.616;2023-05-25T06:17:06;98249.69;;;19.43;100.00
41886;BME280;27567;43.084;25.616;2023-05-25T06:19:50;98253.31;;;19.59;100.00
41886;BME280;27567;43.084;25.616;2023-05-25T06:22:34;98248.81;;;19.80;100.00
41886;BME280;27567;43.084;25.616;2023-05-25T06:25:19;98255.06;;;20.34;100.00
41886;BME280;27567;43.084;25.616;2023-05-25T06:28:03;98257.78;;;20.45;100.00
41886;BME280;27567;43.084;25.616;2023-05-25T06:30:47;98258.41;;;20.72;100.00
41886;BME280;27567;43.084;25.616;2023-05-25T06:33:31;98265.53;;;20.99;100.00
41886;BME280;27567;43.084;25.616;2023-05-25T06:36:15;98264.69;;;20.99;100.00
41886;BME280;27567;43.084;25.616;2023-05-25T06:39:00;98279.91;;;20.64;100.00
41886;BME280;27567;43.084;25.616;2023-05-25T06:41:44;98282.19;;;20.19;100.00
41886;BME280;27567;43.084;25.616;2023-05-25T06:44:28;98274.31;;;19.69;100.00
41886;BME280;27567;43.084;25.616;2023-05-25T06:47:12;98272.38;;;19.64;100.00
41886;BME280;27567;43.084;25.616;2023-05-25T06:49:56;98280.50;;;19.59;100.00
41886;BME280;27567;43.084;25.616;2023-05-25T06:52:41;98280.97;;;19.46;100.00
41886;BME280;27567;43.084;25.616;2023-05-25T06:55:25;98279.38;;;19.93;100.00
41886;BME280;27567;43.084;25.616;2023-05-25T06:58:09;98282.59;;;19.90;100.00
41886;BME280;27567;43.084;25.616;2023-05-25T07:00:54;98285.53;;;20.41;100.00
41886;BME280;27567;43.084;25.616;2023-05-25T07:03:39;98292.41;;;19.91;100.00
41886;BME280;27567;43.084;25.616;2023-05-25T07:06:23;98279.03;;;19.84;100.00
41886;BME280;27567;43.084;25.616;2023-05-25T07:09:07;98282.03;;;19.82;100.00
41886;BME280;27567;43.084;25.616;2023-05-25T07:11:50;98286.09;;;19.85;100.00
41886;BME280;27567;43.084;25.616;2023-05-25T07:14:35;98283.03;;;20.19;100.00
41886;BME280;27567;43.084;25.616;2023-05-25T07:17:18;98283.53;;;20.11;100.00
41886;BME280;27567;43.084;25.616;2023-05-25T07:20:04;98283.03;;;20.19;100.00
41886;BME280;27567;43.084;25.616;2023-05-25T07:22:49;98286.19;;;20.01;100.00
41886;BME280;27567;43.084;25.616;2023-05-25T07:25:33;98281.81;;;19.89;100.00
41886;BME280;27567;43.084;25.616;2023-05-25T07:28:17;98278.44;;;20.30;100.00
41886;BME280;27567;43.084;25.616;2023-05-25T07:31:01;98275.81;;;20.56;100.00
41886;BME280;27567;43.084;25.616;2023-05-25T07:33:45;98290.31;;;20.87;100.00
41886;BME280;27567;43.084;25.616;2023-05-25T07:36:29;98288.94;;;20.85;100.00
41886;BME280;27567;43.084;25.616;2023-05-25T07:39:13;98277.25;;;21.05;100.00
41886;BME280;27567;43.084;25.616;2023-05-25T07:41:57;98275.91;;;21.02;100.00
41886;BME280;27567;43.084;25.616;2023-05-25T07:44:41;98277.19;;;20.74;100.00
41886;BME280;27567;43.084;25.616;2023-05-25T07:47:26;98290.25;;;20.67;100.00
41886;BME280;27567;43.084;25.616;2023-05-25T07:50:10;98282.69;;;20.95;100.00
41886;BME280;27567;43.084;25.616;2023-05-25T07:52:54;98277.53;;;21.24;100.00
41886;BME280;27567;43.084;25.616;2023-05-25T07:55:41;98281.06;;;21.14;100.00
41886;BME280;27567;43.084;25.616;2023-05-25T07:58:25;98288.44;;;21.19;100.00
41886;BME280;27567;43.084;25.616;2023-05-25T08:01:09;98290.34;;;20.93;100.00
41886;BME280;27567;43.084;25.616;2023-05-25T08:03:53;98284.34;;;21.37;100.00
41886;BME280;27567;43.084;25.616;2023-05-25T08:06:37;98302.03;;;21.60;100.00
41886;BME280;27567;43.084;25.616;2023-05-25T08:09:22;98287.88;;;21.32;100.00
41886;BME280;27567;43.084;25.616;2023-05-25T08:12:06;98285.69;;;21.50;100.00
41886;BME280;27567;43.084;25.616;2023-05-25T08:14:50;98288.41;;;21.66;100.00
41886;BME280;27567;43.084;25.616;2023-05-25T08:17:34;98288.06;;;21.98;100.00
41886;BME280;27567;43.084;25.616;2023-05-25T08:20:18;98275.41;;;22.23;100.00
41886;BME280;27567;43.084;25.616;2023-05-25T08:23:02;98280.69;;;21.99;100.00
41886;BME280;27567;43.084;25.616;2023-05-25T08:25:47;98285.97;;;22.50;100.00
41886;BME280;27567;43.084;25.616;2023-05-25T08:28:31;98281.75;;;22.69;100.00
41886;BME280;27567;43.084;25.616;2023-05-25T08:31:15;98273.97;;;22.36;100.00
41886;BME280;27567;43.084;25.616;2023-05-25T08:34:00;98276.81;;;22.10;100.00
41886;BME280;27567;43.084;25.616;2023-05-25T08:36:44;98282.91;;;21.91;100.00
41886;BME280;27567;43.084;25.616;2023-05-25T08:39:29;98282.44;;;22.45;100.00
41886;BME280;27567;43.084;25.616;2023-05-25T08:42:13;98277.31;;;22.78;100.00
41886;BME280;27567;43.084;25.616;2023-05-25T08:44:57;98288.19;;;22.43;100.00
41886;BME280;27567;43.084;25.616;2023-05-25T08:47:42;98279.03;;;22.63;100.00
41886;BME280;27567;43.084;25.616;2023-05-25T08:50:29;98278.81;;;23.00;100.00
41886;BME280;27567;43.084;25.616;2023-05-25T08:53:15;98275.41;;;23.48;100.00
41886;BME280;27567;43.084;25.616;2023-05-25T08:56:00;98274.66;;;23.42;100.00
41886;BME280;27567;43.084;25.616;2023-05-25T08:58:53;98274.81;;;24.10;100.00
41886;BME280;27567;43.084;25.616;2023-05-25T09:01:43;98269.59;;;24.08;100.00
41886;BME280;27567;43.084;25.616;2023-05-25T09:04:33;98262.44;;;24.12;100.00
41886;BME280;27567;43.084;25.616;2023-05-25T09:07:17;98261.84;;;24.15;100.00
41886;BME280;27567;43.084;25.616;2023-05-25T09:10:02;98254.31;;;23.78;100.00
41886;BME280;27567;43.084;25.616;2023-05-25T09:12:48;98269.84;;;23.58;100.00
41886;BME280;27567;43.084;25.616;2023-05-25T09:15:34;98255.03;;;23.64;100.00
41886;BME280;27567;43.084;25.616;2023-05-25T09:18:19;98249.84;;;23.87;100.00
41886;BME280;27567;43.084;25.616;2023-05-25T09:21:03;98244.31;;;24.16;100.00
41886;BME280;27567;43.084;25.616;2023-05-25T09:23:48;98244.97;;;24.08;100.00
41886;BME280;27567;43.084;25.616;2023-05-25T09:26:33;98247.56;;;23.70;100.00
41886;BME280;27567;43.084;25.616;2023-05-25T09:29:17;98256.78;;;23.50;100.00
41886;BME280;27567;43.084;25.616;2023-05-25T09:32:05;98245.59;;;23.51;100.00
41886;BME280;27567;43.084;25.616;2023-05-25T09:34:49;98239.00;;;23.77;100.00
41886;BME280;27567;43.084;25.616;2023-05-25T09:37:37;98241.31;;;24.18;100.00
41886;BME280;27567;43.084;25.616;2023-05-25T09:40:25;98236.63;;;24.57;100.00
41886;BME280;27567;43.084;25.616;2023-05-25T09:43:12;98236.72;;;24.71;100.00
41886;BME280;27567;43.084;25.616;2023-05-25T09:45:59;98231.25;;;24.52;100.00
41886;BME280;27567;43.084;25.616;2023-05-25T09:48:43;98233.25;;;23.78;100.00
41886;BME280;27567;43.084;25.616;2023-05-25T09:51:28;98224.09;;;23.88;100.00
41886;BME280;27567;43.084;25.616;2023-05-25T09:54:15;98217.00;;;24.11;100.00
41886;BME280;27567;43.084;25.616;2023-05-25T09:57:02;98222.47;;;25.07;100.00
41886;BME280;27567;43.084;25.616;2023-05-25T09:59:46;98220.31;;;25.37;100.00
41886;BME280;27567;43.084;25.616;2023-05-25T10:02:31;98215.66;;;26.07;100.00
41886;BME280;27567;43.084;25.616;2023-05-25T10:05:18;98220.75;;;26.65;100.00
41886;BME280;27567;43.084;25.616;2023-05-25T10:08:02;98209.97;;;26.91;100.00
41886;BME280;27567;43.084;25.616;2023-05-25T10:10:47;98191.63;;;27.81;100.00
41886;BME280;27567;43.084;25.616;2023-05-25T10:13:36;98184.69;;;29.42;89.00
41886;BME280;27567;43.084;25.616;2023-05-25T10:16:25;98186.78;;;29.84;95.90
41886;BME280;27567;43.084;25.616;2023-05-25T10:19:18;98189.88;;;31.56;77.52
41886;BME280;27567;43.084;25.616;2023-05-25T10:27:58;98175.66;;;34.92;58.35
41886;BME280;27567;43.084;25.616;2023-05-25T10:30:42;98180.28;;;33.57;68.60
41886;BME280;27567;43.084;25.616;2023-05-25T10:33:28;98183.44;;;30.51;87.61
41886;BME280;27567;43.084;25.616;2023-05-25T10:36:12;98178.25;;;27.17;100.00
41886;BME280;27567;43.084;25.616;2023-05-25T10:38:59;98173.44;;;26.77;100.00
41886;BME280;27567;43.084;25.616;2023-05-25T10:41:45;98181.81;;;27.98;100.00
41886;BME280;27567;43.084;25.616;2023-05-25T10:44:30;98153.63;;;30.56;100.00
41886;BME280;27567;43.084;25.616;2023-05-25T10:47:15;98155.31;;;32.97;67.04
41886;BME280;27567;43.084;25.616;2023-05-25T10:49:59;98158.25;;;29.23;89.37
41886;BME280;27567;43.084;25.616;2023-05-25T10:52:45;98165.19;;;28.38;100.00
41886;BME280;27567;43.084;25.616;2023-05-25T10:56:04;98158.69;;;28.87;100.00
41886;BME280;27567;43.084;25.616;2023-05-25T10:58:51;98156.78;;;27.59;100.00
41886;BME280;27567;43.084;25.616;2023-05-25T11:01:49;98167.22;;;26.25;100.00
41886;BME280;27567;43.084;25.616;2023-05-25T11:04:33;98166.09;;;25.48;100.00
41886;BME280;27567;43.084;25.616;2023-05-25T11:07:20;98159.63;;;25.25;100.00
41886;BME280;27567;43.084;25.616;2023-05-25T11:10:05;98152.72;;;25.41;100.00
41886;BME280;27567;43.084;25.616;2023-05-25T11:12:49;98153.91;;;26.19;100.00
41886;BME280;27567;43.084;25.616;2023-05-25T11:15:34;98154.72;;;26.56;100.00
41886;BME280;27567;43.084;25.616;2023-05-25T11:18:18;98146.34;;;29.49;100.00
41886;BME280;27567;43.084;25.616;2023-05-25T11:21:13;98136.88;;;33.37;77.66
41886;BME280;27567;43.084;25.616;2023-05-25T11:24:02;98139.53;;;30.83;98.99
41886;BME280;27567;43.084;25.616;2023-05-25T11:26:55;98149.78;;;28.37;100.00
41886;BME280;27567;43.084;25.616;2023-05-25T11:29:40;98149.88;;;27.07;100.00
41886;BME280;27567;43.084;25.616;2023-05-25T11:32:25;98146.78;;;27.81;100.00
41886;BME280;27567;43.084;25.616;2023-05-25T11:35:10;98139.78;;;31.48;76.61
41886;BME280;27567;43.084;25.616;2023-05-25T11:37:54;98135.13;;;35.91;53.35
41886;BME280;27567;43.084;25.616;2023-05-25T11:40:38;98132.78;;;36.20;49.46
41886;BME280;27567;43.084;25.616;2023-05-25T11:43:23;98127.13;;;38.42;40.56
41886;BME280;27567;43.084;25.616;2023-05-25T11:46:08;98128.63;;;37.13;44.31
41886;BME280;27567;43.084;25.616;2023-05-25T11:48:53;98133.84;;;37.63;42.88
41886;BME280;27567;43.084;25.616;2023-05-25T11:51:38;98144.69;;;36.48;41.21
41886;BME280;27567;43.084;25.616;2023-05-25T11:54:26;98155.50;;;31.82;55.71
41886;BME280;27567;43.084;25.616;2023-05-25T11:57:20;98157.25;;;29.28;71.01
41886;BME280;27567;43.084;25.616;2023-05-25T12:00:08;98173.50;;;27.40;78.43
41886;BME280;27567;43.084;25.616;2023-05-25T12:02:55;98171.31;;;26.00;100.00
41886;BME280;27567;43.084;25.616;2023-05-25T12:05:40;98172.38;;;25.01;100.00
41886;BME280;27567;43.084;25.616;2023-05-25T12:08:36;98162.81;;;24.46;100.00
41886;BME280;27567;43.084;25.616;2023-05-25T12:11:34;98147.56;;;24.21;100.00
41886;BME280;27567;43.084;25.616;2023-05-25T12:14:19;98148.53;;;24.11;100.00
41886;BME280;27567;43.084;25.616;2023-05-25T12:17:07;98154.16;;;23.77;100.00
41886;BME280;27567;43.084;25.616;2023-05-25T12:19:51;98160.78;;;23.95;100.00
41886;BME280;27567;43.084;25.616;2023-05-25T12:22:37;98168.00;;;23.66;100.00
41886;BME280;27567;43.084;25.616;2023-05-25T12:25:21;98166.13;;;23.37;100.00
41886;BME280;27567;43.084;25.616;2023-05-25T12:28:13;98168.16;;;22.97;100.00
41886;BME280;27567;43.084;25.616;2023-05-25T12:31:18;98184.94;;;22.40;100.00
41886;BME280;27567;43.084;25.616;2023-05-25T12:34:09;98185.84;;;22.25;100.00
41886;BME280;27567;43.084;25.616;2023-05-25T12:36:55;98169.28;;;23.20;100.00
41886;BME280;27567;43.084;25.616;2023-05-25T12:39:39;98176.75;;;23.09;100.00
41886;BME280;27567;43.084;25.616;2023-05-25T12:42:24;98160.25;;;22.90;100.00
41886;BME280;27567;43.084;25.616;2023-05-25T12:45:13;98158.91;;;22.88;100.00
41886;BME280;27567;43.084;25.616;2023-05-25T12:47:58;98164.56;;;25.09;100.00
41886;BME280;27567;43.084;25.616;2023-05-25T12:50:57;98160.09;;;30.39;100.00
41886;BME280;27567;43.084;25.616;2023-05-25T12:53:49;98156.97;;;29.98;99.30
41886;BME280;27567;43.084;25.616;2023-05-25T12:56:52;98167.59;;;24.93;100.00
41886;BME280;27567;43.084;25.616;2023-05-25T12:59:37;98148.44;;;23.30;100.00
41886;BME280;27567;43.084;25.616;2023-05-25T13:02:22;98150.34;;;23.00;100.00
41886;BME280;27567;43.084;25.616;2023-05-25T13:05:25;98162.22;;;22.85;100.00
41886;BME280;27567;43.084;25.616;2023-05-25T13:08:10;98161.81;;;22.72;100.00
41886;BME280;27567;43.084;25.616;2023-05-25T13:10:54;98151.97;;;22.71;100.00
41886;BME280;27567;43.084;25.616;2023-05-25T13:13:38;98162.69;;;22.62;100.00
41886;BME280;27567;43.084;25.616;2023-05-25T13:16:22;98155.03;;;21.64;100.00
41886;BME280;27567;43.084;25.616;2023-05-25T13:19:08;98155.69;;;21.09;100.00
41886;BME280;27567;43.084;25.616;2023-05-25T13:21:52;98151.59;;;21.17;100.00
41886;BME280;27567;43.084;25.616;2023-05-25T13:24:38;98139.34;;;21.14;100.00
41886;BME280;27567;43.084;25.616;2023-05-25T13:27:22;98140.47;;;20.62;100.00
41886;BME280;27567;43.084;25.616;2023-05-25T13:30:07;98145.34;;;20.34;100.00
41886;BME280;27567;43.084;25.616;2023-05-25T13:32:51;98158.41;;;20.32;100.00
41886;BME280;27567;43.084;25.616;2023-05-25T13:35:35;98160.97;;;19.85;100.00
41886;BME280;27567;43.084;25.616;2023-05-25T13:38:40;98154.91;;;18.76;100.00
41886;BME280;27567;43.084;25.616;2023-05-25T13:41:25;98150.13;;;18.56;100.00
41886;BME280;27567;43.084;25.616;2023-05-25T13:44:11;98137.63;;;18.55;100.00
41886;BME280;27567;43.084;25.616;2023-05-25T13:46:56;98135.94;;;18.49;100.00
41886;BME280;27567;43.084;25.616;2023-05-25T13:49:40;98132.91;;;18.13;100.00
41886;BME280;27567;43.084;25.616;2023-05-25T13:52:24;98136.41;;;17.86;100.00
41886;BME280;27567;43.084;25.616;2023-05-25T13:55:09;98131.25;;;17.62;100.00
41886;BME280;27567;43.084;25.616;2023-05-25T13:57:54;98148.81;;;17.60;100.00
41886;BME280;27567;43.084;25.616;2023-05-25T14:00:38;98156.38;;;17.57;100.00
41886;BME280;27567;43.084;25.616;2023-05-25T14:03:22;98177.19;;;17.52;100.00
41886;BME280;27567;43.084;25.616;2023-05-25T14:06:06;98175.22;;;17.47;100.00
41886;BME280;27567;43.084;25.616;2023-05-25T14:08:50;98174.84;;;17.61;100.00
41886;BME280;27567;43.084;25.616;2023-05-25T14:11:35;98160.56;;;17.65;100.00
41886;BME280;27567;43.084;25.616;2023-05-25T14:14:19;98140.03;;;17.97;100.00
41886;BME280;27567;43.084;25.616;2023-05-25T14:17:03;98127.88;;;17.99;100.00
41886;BME280;27567;43.084;25.616;2023-05-25T14:19:48;98118.56;;;18.17;100.00
41886;BME280;27567;43.084;25.616;2023-05-25T14:22:32;98119.09;;;18.47;100.00